sensor_id;sensor_type;location;lat;lon;timestamp;temperature;humidity
4695;DHT22;2361;49.540;8.390;2023-04-25T00:02:13;11.30;99.90
4695;DHT22;2361;49.540;8.390;2023-04-25T00:04:40;11.30;99.90
4695;DHT22;2361;49.540;8.390;2023-04-25T00:07:08;11.40;99.90
4695;DHT22;2361;49.540;8.390;2023-04-25T00:09:35;11.40;99.90
4695;DHT22;2361;49.540;8.390;2023-04-25T00:12:02;11.30;99.90
4695;DHT22;2361;49.540;8.390;2023-04-25T00:14:29;11.30;99.90
4695;DHT22;2361;49.540;8.390;2023-04-25T00:16:56;11.30;99.90
4695;DHT22;2361;49.540;8.390;2023-04-25T00:19:24;11.30;99.90
4695;DHT22;2361;49.540;8.390;2023-04-25T00:21:51;11.40;99.90
4695;DHT22;2361;49.540;8.390;2023-04-25T00:24:18;11.40;99.90
4695;DHT22;2361;49.540;8.390;2023-04-25T00:26:45;11.40;99.90
4695;DHT22;2361;49.540;8.390;2023-04-25T00:29:12;11.40;99.90
4695;DHT22;2361;49.540;8.390;2023-04-25T00:31:39;11.40;99.90
4695;DHT22;2361;49.540;8.390;2023-04-25T00:34:06;11.30;99.90
4695;DHT22;2361;49.540;8.390;2023-04-25T00:36:34;11.30;99.90
4695;DHT22;2361;49.540;8.390;2023-04-25T00:39:01;11.30;99.90
4695;DHT22;2361;49.540;8.390;2023-04-25T00:41:31;11.30;99.90
4695;DHT22;2361;49.540;8.390;2023-04-25T00:43:59;11.30;99.90
4695;DHT22;2361;49.540;8.390;2023-04-25T00:46:26;11.30;99.90
4695;DHT22;2361;49.540;8.390;2023-04-25T00:48:53;11.30;99.90
4695;DHT22;2361;49.540;8.390;2023-04-25T00:51:21;11.30;99.90
4695;DHT22;2361;49.540;8.390;2023-04-25T00:53:49;11.20;99.90
4695;DHT22;2361;49.540;8.390;2023-04-25T00:56:17;11.20;99.90
4695;DHT22;2361;49.540;8.390;2023-04-25T00:58:45;11.20;99.90
4695;DHT22;2361;49.540;8.390;2023-04-25T01:01:12;11.20;99.90
4695;DHT22;2361;49.540;8.390;2023-04-25T01:03:40;11.30;99.90
4695;DHT22;2361;49.540;8.390;2023-04-25T01:06:09;11.30;99.90
4695;DHT22;2361;49.540;8.390;2023-04-25T01:08:38;11.30;99.90
4695;DHT22;2361;49.540;8.390;2023-04-25T01:11:06;11.30;99.90
4695;DHT22;2361;49.540;8.390;2023-04-25T01:13:33;11.30;99.90
4695;DHT22;2361;49.540;8.390;2023-04-25T01:16:02;11.30;99.90
4695;DHT22;2361;49.540;8.390;2023-04-25T01:18:29;11.30;99.90
4695;DHT22;2361;49.540;8.390;2023-04-25T01:21:08;11.20;99.90
4695;DHT22;2361;49.540;8.390;2023-04-25T01:23:37;11.30;99.90
4695;DHT22;2361;49.540;8.390;2023-04-25T01:26:06;11.30;99.90
4695;DHT22;2361;49.540;8.390;2023-04-25T01:28:36;11.30;99.90
4695;DHT22;2361;49.540;8.390;2023-04-25T01:31:04;11.30;99.90
4695;DHT22;2361;49.540;8.390;2023-04-25T01:33:32;11.30;99.90
4695;DHT22;2361;49.540;8.390;2023-04-25T01:36:00;11.30;99.90
4695;DHT22;2361;49.540;8.390;2023-04-25T01:38:27;11.30;99.90
4695;DHT22;2361;49.540;8.390;2023-04-25T01:40:54;11.30;99.90
4695;DHT22;2361;49.540;8.390;2023-04-25T01:43:22;11.30;99.90
4695;DHT22;2361;49.540;8.390;2023-04-25T01:45:50;11.20;99.90
4695;DHT22;2361;49.540;8.390;2023-04-25T01:48:17;11.20;99.90
4695;DHT22;2361;49.540;8.390;2023-04-25T01:50:45;11.20;99.90
4695;DHT22;2361;49.540;8.390;2023-04-25T01:53:13;11.20;99.90
4695;DHT22;2361;49.540;8.390;2023-04-25T01:55:41;11.20;99.90
4695;DHT22;2361;49.540;8.390;2023-04-25T01:58:08;11.10;99.90
4695;DHT22;2361;49.540;8.390;2023-04-25T02:00:39;11.00;99.90
4695;DHT22;2361;49.540;8.390;2023-04-25T02:03:07;10.90;99.90
4695;DHT22;2361;49.540;8.390;2023-04-25T02:05:39;10.90;99.90
4695;DHT22;2361;49.540;8.390;2023-04-25T02:08:09;10.90;99.90
4695;DHT22;2361;49.540;8.390;2023-04-25T02:10:37;10.90;99.90
4695;DHT22;2361;49.540;8.390;2023-04-25T02:13:04;10.90;99.90
4695;DHT22;2361;49.540;8.390;2023-04-25T02:15:32;10.90;99.90
4695;DHT22;2361;49.540;8.390;2023-04-25T02:17:59;10.80;99.90
4695;DHT22;2361;49.540;8.390;2023-04-25T02:20:28;10.80;99.90
4695;DHT22;2361;49.540;8.390;2023-04-25T02:22:56;10.80;99.90
4695;DHT22;2361;49.540;8.390;2023-04-25T02:25:23;10.80;99.90
4695;DHT22;2361;49.540;8.390;2023-04-25T02:27:50;10.80;99.90
4695;DHT22;2361;49.540;8.390;2023-04-25T02:30:18;10.70;99.90
4695;DHT22;2361;49.540;8.390;2023-04-25T02:32:45;10.70;99.90
4695;DHT22;2361;49.540;8.390;2023-04-25T02:35:12;10.70;99.90
4695;DHT22;2361;49.540;8.390;2023-04-25T02:37:40;10.70;99.90
4695;DHT22;2361;49.540;8.390;2023-04-25T02:40:07;10.60;99.90
4695;DHT22;2361;49.540;8.390;2023-04-25T02:42:35;10.70;99.90
4695;DHT22;2361;49.540;8.390;2023-04-25T02:45:03;10.70;99.90
4695;DHT22;2361;49.540;8.390;2023-04-25T02:47:30;10.70;99.90
4695;DHT22;2361;49.540;8.390;2023-04-25T02:49:58;10.70;99.90
4695;DHT22;2361;49.540;8.390;2023-04-25T02:52:24;10.60;99.90
4695;DHT22;2361;49.540;8.390;2023-04-25T02:54:51;10.50;99.90
4695;DHT22;2361;49.540;8.390;2023-04-25T02:57:18;10.50;99.90
4695;DHT22;2361;49.540;8.390;2023-04-25T02:59:45;10.50;99.90
4695;DHT22;2361;49.540;8.390;2023-04-25T03:02:12;10.50;99.90
4695;DHT22;2361;49.540;8.390;2023-04-25T03:04:39;10.50;99.90
4695;DHT22;2361;49.540;8.390;2023-04-25T03:07:07;10.50;99.90
4695;DHT22;2361;49.540;8.390;2023-04-25T03:09:34;10.50;99.90
4695;DHT22;2361;49.540;8.390;2023-04-25T03:12:01;10.50;99.90
4695;DHT22;2361;49.540;8.390;2023-04-25T03:14:28;10.50;99.90
4695;DHT22;2361;49.540;8.390;2023-04-25T03:16:55;10.40;99.90
4695;DHT22;2361;49.540;8.390;2023-04-25T03:19:22;10.40;99.90
4695;DHT22;2361;49.540;8.390;2023-04-25T03:21:49;10.50;99.90
4695;DHT22;2361;49.540;8.390;2023-04-25T03:24:16;10.50;99.90
4695;DHT22;2361;49.540;8.390;2023-04-25T03:26:43;10.50;99.90
4695;DHT22;2361;49.540;8.390;2023-04-25T03:29:10;10.50;99.90
4695;DHT22;2361;49.540;8.390;2023-04-25T03:31:38;10.50;99.90
4695;DHT22;2361;49.540;8.390;2023-04-25T03:34:05;10.60;99.90
4695;DHT22;2361;49.540;8.390;2023-04-25T03:36:32;10.50;99.90
4695;DHT22;2361;49.540;8.390;2023-04-25T03:38:59;10.50;99.90
4695;DHT22;2361;49.540;8.390;2023-04-25T03:41:26;10.50;99.90
4695;DHT22;2361;49.540;8.390;2023-04-25T03:43:54;10.60;99.90
4695;DHT22;2361;49.540;8.390;2023-04-25T03:46:21;10.60;99.90
4695;DHT22;2361;49.540;8.390;2023-04-25T03:48:48;10.60;99.90
4695;DHT22;2361;49.540;8.390;2023-04-25T03:51:15;10.60;99.90
4695;DHT22;2361;49.540;8.390;2023-04-25T03:53:42;10.60;99.90
4695;DHT22;2361;49.540;8.390;2023-04-25T03:56:09;10.60;99.90
4695;DHT22;2361;49.540;8.390;2023-04-25T03:58:36;10.60;99.90
4695;DHT22;2361;49.540;8.390;2023-04-25T04:01:03;10.60;99.90
4695;DHT22;2361;49.540;8.390;2023-04-25T04:03:34;10.60;99.90
4695;DHT22;2361;49.540;8.390;2023-04-25T04:06:04;10.60;99.90
4695;DHT22;2361;49.540;8.390;2023-04-25T04:08:32;10.60;99.90
4695;DHT22;2361;49.540;8.390;2023-04-25T04:11:00;10.60;99.90
4695;DHT22;2361;49.540;8.390;2023-04-25T04:13:27;10.60;99.90
4695;DHT22;2361;49.540;8.390;2023-04-25T04:15:55;10.60;99.90
4695;DHT22;2361;49.540;8.390;2023-04-25T04:18:22;10.70;99.90
4695;DHT22;2361;49.540;8.390;2023-04-25T04:20:50;10.70;99.90
4695;DHT22;2361;49.540;8.390;2023-04-25T04:23:17;10.70;99.90
4695;DHT22;2361;49.540;8.390;2023-04-25T04:25:44;10.60;99.90
4695;DHT22;2361;49.540;8.390;2023-04-25T04:28:11;10.70;99.90
4695;DHT22;2361;49.540;8.390;2023-04-25T04:30:39;10.70;99.90
4695;DHT22;2361;49.540;8.390;2023-04-25T04:33:08;10.70;99.90
4695;DHT22;2361;49.540;8.390;2023-04-25T04:35:35;10.70;99.90
4695;DHT22;2361;49.540;8.390;2023-04-25T04:38:02;10.70;99.90
4695;DHT22;2361;49.540;8.390;2023-04-25T04:40:29;10.70;99.90
4695;DHT22;2361;49.540;8.390;2023-04-25T04:42:59;10.70;99.90
4695;DHT22;2361;49.540;8.390;2023-04-25T04:45:26;10.70;99.90
4695;DHT22;2361;49.540;8.390;2023-04-25T04:47:54;10.70;99.90
4695;DHT22;2361;49.540;8.390;2023-04-25T04:50:22;10.70;99.90
4695;DHT22;2361;49.540;8.390;2023-04-25T04:52:49;10.70;99.90
4695;DHT22;2361;49.540;8.390;2023-04-25T04:55:16;10.70;99.90
4695;DHT22;2361;49.540;8.390;2023-04-25T04:57:43;10.80;99.90
4695;DHT22;2361;49.540;8.390;2023-04-25T05:00:11;10.80;99.90
4695;DHT22;2361;49.540;8.390;2023-04-25T05:02:38;10.80;99.90
4695;DHT22;2361;49.540;8.390;2023-04-25T05:05:06;10.80;99.90
4695;DHT22;2361;49.540;8.390;2023-04-25T05:07:33;10.80;99.90
4695;DHT22;2361;49.540;8.390;2023-04-25T05:10:01;10.80;99.90
4695;DHT22;2361;49.540;8.390;2023-04-25T05:12:28;10.90;99.90
4695;DHT22;2361;49.540;8.390;2023-04-25T05:14:55;10.90;99.90
4695;DHT22;2361;49.540;8.390;2023-04-25T05:17:22;10.90;99.90
4695;DHT22;2361;49.540;8.390;2023-04-25T05:19:49;10.90;99.90
4695;DHT22;2361;49.540;8.390;2023-04-25T05:22:16;10.90;99.90
4695;DHT22;2361;49.540;8.390;2023-04-25T05:24:43;11.00;99.90
4695;DHT22;2361;49.540;8.390;2023-04-25T05:27:10;11.00;99.90
4695;DHT22;2361;49.540;8.390;2023-04-25T05:29:37;11.10;99.90
4695;DHT22;2361;49.540;8.390;2023-04-25T05:32:05;11.10;99.90
4695;DHT22;2361;49.540;8.390;2023-04-25T05:34:32;11.10;99.90
4695;DHT22;2361;49.540;8.390;2023-04-25T05:36:59;11.10;99.90
4695;DHT22;2361;49.540;8.390;2023-04-25T05:39:26;11.20;99.90
4695;DHT22;2361;49.540;8.390;2023-04-25T05:41:53;11.20;99.90
4695;DHT22;2361;49.540;8.390;2023-04-25T05:44:20;11.20;99.90
4695;DHT22;2361;49.540;8.390;2023-04-25T05:46:47;11.20;99.90
4695;DHT22;2361;49.540;8.390;2023-04-25T05:49:14;11.30;99.90
4695;DHT22;2361;49.540;8.390;2023-04-25T05:51:43;11.40;99.90
4695;DHT22;2361;49.540;8.390;2023-04-25T05:54:10;11.40;99.90
4695;DHT22;2361;49.540;8.390;2023-04-25T05:56:37;11.50;99.90
4695;DHT22;2361;49.540;8.390;2023-04-25T05:59:04;11.50;99.90
4695;DHT22;2361;49.540;8.390;2023-04-25T06:01:31;11.60;99.90
4695;DHT22;2361;49.540;8.390;2023-04-25T06:03:58;11.60;99.90
4695;DHT22;2361;49.540;8.390;2023-04-25T06:06:25;11.60;99.90
4695;DHT22;2361;49.540;8.390;2023-04-25T06:08:53;11.60;99.90
4695;DHT22;2361;49.540;8.390;2023-04-25T06:11:21;11.50;99.90
4695;DHT22;2361;49.540;8.390;2023-04-25T06:13:48;11.40;99.90
4695;DHT22;2361;49.540;8.390;2023-04-25T06:16:15;11.10;99.90
4695;DHT22;2361;49.540;8.390;2023-04-25T06:18:42;11.00;99.90
4695;DHT22;2361;49.540;8.390;2023-04-25T06:21:09;10.90;99.90
4695;DHT22;2361;49.540;8.390;2023-04-25T06:23:36;10.90;99.90
4695;DHT22;2361;49.540;8.390;2023-04-25T06:26:03;10.90;99.90
4695;DHT22;2361;49.540;8.390;2023-04-25T06:28:30;11.00;99.90
4695;DHT22;2361;49.540;8.390;2023-04-25T06:30:57;11.00;99.90
4695;DHT22;2361;49.540;8.390;2023-04-25T06:33:24;11.10;99.90
4695;DHT22;2361;49.540;8.390;2023-04-25T06:35:51;11.00;99.90
4695;DHT22;2361;49.540;8.390;2023-04-25T06:38:18;10.90;99.90
4695;DHT22;2361;49.540;8.390;2023-04-25T06:40:45;10.90;99.90
4695;DHT22;2361;49.540;8.390;2023-04-25T06:43:12;10.80;99.90
4695;DHT22;2361;49.540;8.390;2023-04-25T06:45:39;10.80;99.90
4695;DHT22;2361;49.540;8.390;2023-04-25T06:48:06;10.80;99.90
4695;DHT22;2361;49.540;8.390;2023-04-25T06:50:34;10.80;99.90
4695;DHT22;2361;49.540;8.390;2023-04-25T06:53:01;10.70;99.90
4695;DHT22;2361;49.540;8.390;2023-04-25T06:55:28;10.70;99.90
4695;DHT22;2361;49.540;8.390;2023-04-25T06:57:55;10.70;99.90
4695;DHT22;2361;49.540;8.390;2023-04-25T07:00:22;10.70;99.90
4695;DHT22;2361;49.540;8.390;2023-04-25T07:02:49;10.70;99.90
4695;DHT22;2361;49.540;8.390;2023-04-25T07:05:16;10.70;99.90
4695;DHT22;2361;49.540;8.390;2023-04-25T07:07:44;10.70;99.90
4695;DHT22;2361;49.540;8.390;2023-04-25T07:10:11;10.70;99.90
4695;DHT22;2361;49.540;8.390;2023-04-25T07:12:38;10.70;99.90
4695;DHT22;2361;49.540;8.390;2023-04-25T07:15:06;10.60;99.90
4695;DHT22;2361;49.540;8.390;2023-04-25T07:17:34;10.60;99.90
4695;DHT22;2361;49.540;8.390;2023-04-25T07:20:01;10.60;99.90
4695;DHT22;2361;49.540;8.390;2023-04-25T07:22:30;10.60;99.90
4695;DHT22;2361;49.540;8.390;2023-04-25T07:24:57;10.60;99.90
4695;DHT22;2361;49.540;8.390;2023-04-25T07:27:23;10.70;99.90
4695;DHT22;2361;49.540;8.390;2023-04-25T07:29:50;10.80;99.90
4695;DHT22;2361;49.540;8.390;2023-04-25T07:32:17;10.80;99.90
4695;DHT22;2361;49.540;8.390;2023-04-25T07:34:44;10.80;99.90
4695;DHT22;2361;49.540;8.390;2023-04-25T07:37:11;10.90;99.90
4695;DHT22;2361;49.540;8.390;2023-04-25T07:39:40;11.20;99.90
4695;DHT22;2361;49.540;8.390;2023-04-25T07:42:08;11.70;99.90
4695;DHT22;2361;49.540;8.390;2023-04-25T07:44:35;12.60;99.90
4695;DHT22;2361;49.540;8.390;2023-04-25T07:47:06;13.30;99.90
4695;DHT22;2361;49.540;8.390;2023-04-25T07:49:39;13.80;99.90
4695;DHT22;2361;49.540;8.390;2023-04-25T07:52:06;13.90;99.90
4695;DHT22;2361;49.540;8.390;2023-04-25T07:54:35;13.80;99.90
4695;DHT22;2361;49.540;8.390;2023-04-25T07:57:02;13.70;99.90
4695;DHT22;2361;49.540;8.390;2023-04-25T07:59:29;13.60;99.90
4695;DHT22;2361;49.540;8.390;2023-04-25T08:01:56;13.50;99.90
4695;DHT22;2361;49.540;8.390;2023-04-25T08:04:24;13.40;99.90
4695;DHT22;2361;49.540;8.390;2023-04-25T08:06:52;13.50;99.90
4695;DHT22;2361;49.540;8.390;2023-04-25T08:09:20;13.50;99.90
4695;DHT22;2361;49.540;8.390;2023-04-25T08:11:48;13.40;99.90
4695;DHT22;2361;49.540;8.390;2023-04-25T08:14:15;13.40;99.90
4695;DHT22;2361;49.540;8.390;2023-04-25T08:16:42;13.70;99.90
4695;DHT22;2361;49.540;8.390;2023-04-25T08:19:10;14.20;99.90
4695;DHT22;2361;49.540;8.390;2023-04-25T08:21:37;14.80;99.90
4695;DHT22;2361;49.540;8.390;2023-04-25T08:24:04;15.20;99.90
4695;DHT22;2361;49.540;8.390;2023-04-25T08:26:31;15.30;99.90
4695;DHT22;2361;49.540;8.390;2023-04-25T08:28:59;15.60;99.90
4695;DHT22;2361;49.540;8.390;2023-04-25T08:31:26;15.50;99.90
4695;DHT22;2361;49.540;8.390;2023-04-25T08:33:53;15.00;99.90
4695;DHT22;2361;49.540;8.390;2023-04-25T08:36:20;15.80;99.90
4695;DHT22;2361;49.540;8.390;2023-04-25T08:39:03;17.10;99.20
4695;DHT22;2361;49.540;8.390;2023-04-25T08:41:31;17.40;96.10
4695;DHT22;2361;49.540;8.390;2023-04-25T08:43:58;17.10;96.60
4695;DHT22;2361;49.540;8.390;2023-04-25T08:46:27;17.60;96.80
4695;DHT22;2361;49.540;8.390;2023-04-25T08:48:56;18.90;94.40
4695;DHT22;2361;49.540;8.390;2023-04-25T08:51:31;19.40;91.70
4695;DHT22;2361;49.540;8.390;2023-04-25T08:54:09;19.00;90.70
4695;DHT22;2361;49.540;8.390;2023-04-25T08:56:56;17.90;91.20
4695;DHT22;2361;49.540;8.390;2023-04-25T08:59:25;16.90;93.30
4695;DHT22;2361;49.540;8.390;2023-04-25T09:01:52;16.50;94.50
4695;DHT22;2361;49.540;8.390;2023-04-25T09:04:19;15.90;95.50
4695;DHT22;2361;49.540;8.390;2023-04-25T09:06:47;15.80;96.20
4695;DHT22;2361;49.540;8.390;2023-04-25T09:09:14;15.60;95.70
4695;DHT22;2361;49.540;8.390;2023-04-25T09:11:42;15.40;96.20
4695;DHT22;2361;49.540;8.390;2023-04-25T09:14:17;15.50;95.80
4695;DHT22;2361;49.540;8.390;2023-04-25T09:19:24;15.60;94.50
4695;DHT22;2361;49.540;8.390;2023-04-25T09:22:06;15.50;94.90
4695;DHT22;2361;49.540;8.390;2023-04-25T09:27:11;15.60;94.90
4695;DHT22;2361;49.540;8.390;2023-04-25T09:29:40;15.50;94.60
4695;DHT22;2361;49.540;8.390;2023-04-25T09:32:21;15.50;95.10
4695;DHT22;2361;49.540;8.390;2023-04-25T09:34:53;15.50;95.30
4695;DHT22;2361;49.540;8.390;2023-04-25T09:37:29;15.60;95.30
4695;DHT22;2361;49.540;8.390;2023-04-25T09:39:58;15.90;95.10
4695;DHT22;2361;49.540;8.390;2023-04-25T09:42:29;16.60;94.00
4695;DHT22;2361;49.540;8.390;2023-04-25T09:44:59;17.60;92.60
4695;DHT22;2361;49.540;8.390;2023-04-25T09:47:28;18.80;90.00
4695;DHT22;2361;49.540;8.390;2023-04-25T09:49:55;19.70;86.40
4695;DHT22;2361;49.540;8.390;2023-04-25T09:52:24;20.70;84.10
4695;DHT22;2361;49.540;8.390;2023-04-25T09:54:52;22.20;78.40
4695;DHT22;2361;49.540;8.390;2023-04-25T09:57:24;23.80;72.30
4695;DHT22;2361;49.540;8.390;2023-04-25T09:59:53;25.00;66.40
4695;DHT22;2361;49.540;8.390;2023-04-25T10:02:26;25.90;62.60
4695;DHT22;2361;49.540;8.390;2023-04-25T10:04:54;25.50;60.70
4695;DHT22;2361;49.540;8.390;2023-04-25T10:07:24;23.50;62.10
4695;DHT22;2361;49.540;8.390;2023-04-25T10:09:59;21.90;65.20
4695;DHT22;2361;49.540;8.390;2023-04-25T10:12:30;21.00;66.50
4695;DHT22;2361;49.540;8.390;2023-04-25T10:14:58;20.30;67.20
4695;DHT22;2361;49.540;8.390;2023-04-25T10:17:29;19.70;67.70
4695;DHT22;2361;49.540;8.390;2023-04-25T10:19:56;19.30;67.90
4695;DHT22;2361;49.540;8.390;2023-04-25T10:22:31;18.80;68.10
4695;DHT22;2361;49.540;8.390;2023-04-25T10:25:00;18.50;69.90
4695;DHT22;2361;49.540;8.390;2023-04-25T10:27:30;18.40;70.00
4695;DHT22;2361;49.540;8.390;2023-04-25T10:32:33;17.60;72.60
4695;DHT22;2361;49.540;8.390;2023-04-25T10:35:38;17.00;73.80
4695;DHT22;2361;49.540;8.390;2023-04-25T10:38:09;16.30;76.40
4695;DHT22;2361;49.540;8.390;2023-04-25T10:40:39;15.50;79.00
4695;DHT22;2361;49.540;8.390;2023-04-25T10:46:00;14.40;84.70
4695;DHT22;2361;49.540;8.390;2023-04-25T10:48:29;14.30;85.40
4695;DHT22;2361;49.540;8.390;2023-04-25T10:51:16;14.20;86.70
4695;DHT22;2361;49.540;8.390;2023-04-25T10:54:07;14.20;88.90
4695;DHT22;2361;49.540;8.390;2023-04-25T10:56:40;14.20;88.90
4695;DHT22;2361;49.540;8.390;2023-04-25T11:01:45;14.60;90.70
4695;DHT22;2361;49.540;8.390;2023-04-25T11:04:23;14.70;90.60
4695;DHT22;2361;49.540;8.390;2023-04-25T11:09:49;14.70;90.40
4695;DHT22;2361;49.540;8.390;2023-04-25T11:12:16;14.70;90.50
4695;DHT22;2361;49.540;8.390;2023-04-25T11:14:44;14.70;91.10
4695;DHT22;2361;49.540;8.390;2023-04-25T11:17:11;14.70;91.50
4695;DHT22;2361;49.540;8.390;2023-04-25T11:19:38;14.70;91.80
4695;DHT22;2361;49.540;8.390;2023-04-25T11:22:05;14.70;92.30
4695;DHT22;2361;49.540;8.390;2023-04-25T11:24:35;14.80;92.20
4695;DHT22;2361;49.540;8.390;2023-04-25T11:27:03;14.90;92.30
4695;DHT22;2361;49.540;8.390;2023-04-25T11:29:32;15.10;92.20
4695;DHT22;2361;49.540;8.390;2023-04-25T11:32:00;15.40;91.30
4695;DHT22;2361;49.540;8.390;2023-04-25T11:34:28;15.50;90.90
4695;DHT22;2361;49.540;8.390;2023-04-25T11:37:03;15.40;90.50
4695;DHT22;2361;49.540;8.390;2023-04-25T11:39:30;15.20;90.60
4695;DHT22;2361;49.540;8.390;2023-04-25T11:41:57;15.10;91.40
4695;DHT22;2361;49.540;8.390;2023-04-25T11:44:25;15.10;91.30
4695;DHT22;2361;49.540;8.390;2023-04-25T11:46:53;15.00;88.20
4695;DHT22;2361;49.540;8.390;2023-04-25T11:49:20;14.80;88.90
4695;DHT22;2361;49.540;8.390;2023-04-25T11:51:48;14.80;89.70
4695;DHT22;2361;49.540;8.390;2023-04-25T11:54:16;14.80;89.20
4695;DHT22;2361;49.540;8.390;2023-04-25T11:56:46;14.90;89.50
4695;DHT22;2361;49.540;8.390;2023-04-25T11:59:13;15.10;89.40
4695;DHT22;2361;49.540;8.390;2023-04-25T12:01:49;15.10;89.20
4695;DHT22;2361;49.540;8.390;2023-04-25T12:06:47;15.10;89.50
4695;DHT22;2361;49.540;8.390;2023-04-25T12:09:19;15.20;89.80
4695;DHT22;2361;49.540;8.390;2023-04-25T12:11:58;15.20;90.20
4695;DHT22;2361;49.540;8.390;2023-04-25T12:14:32;15.40;90.00
4695;DHT22;2361;49.540;8.390;2023-04-25T12:17:03;15.50;89.60
4695;DHT22;2361;49.540;8.390;2023-04-25T12:19:36;15.50;87.80
4695;DHT22;2361;49.540;8.390;2023-04-25T12:22:22;15.40;87.90
4695;DHT22;2361;49.540;8.390;2023-04-25T12:24:50;15.30;89.00
4695;DHT22;2361;49.540;8.390;2023-04-25T12:27:17;15.10;89.80
4695;DHT22;2361;49.540;8.390;2023-04-25T12:29:55;14.70;90.00
4695;DHT22;2361;49.540;8.390;2023-04-25T12:32:23;14.60;90.90
4695;DHT22;2361;49.540;8.390;2023-04-25T12:34:50;14.50;90.70
4695;DHT22;2361;49.540;8.390;2023-04-25T12:37:17;14.50;90.90
4695;DHT22;2361;49.540;8.390;2023-04-25T12:39:44;14.70;91.20
4695;DHT22;2361;49.540;8.390;2023-04-25T12:42:11;14.80;91.20
4695;DHT22;2361;49.540;8.390;2023-04-25T12:44:39;14.90;91.20
4695;DHT22;2361;49.540;8.390;2023-04-25T12:47:07;15.10;91.00
4695;DHT22;2361;49.540;8.390;2023-04-25T12:49:34;15.30;90.40
4695;DHT22;2361;49.540;8.390;2023-04-25T12:52:01;15.30;90.70
4695;DHT22;2361;49.540;8.390;2023-04-25T12:54:28;15.20;90.10
4695;DHT22;2361;49.540;8.390;2023-04-25T12:56:55;15.00;90.50
4695;DHT22;2361;49.540;8.390;2023-04-25T12:59:22;14.90;90.80
4695;DHT22;2361;49.540;8.390;2023-04-25T13:01:49;14.80;90.90
4695;DHT22;2361;49.540;8.390;2023-04-25T13:04:16;14.70;91.20
4695;DHT22;2361;49.540;8.390;2023-04-25T13:06:44;14.60;91.10
4695;DHT22;2361;49.540;8.390;2023-04-25T13:09:11;14.60;91.00
4695;DHT22;2361;49.540;8.390;2023-04-25T13:11:39;14.50;90.90
4695;DHT22;2361;49.540;8.390;2023-04-25T13:14:07;14.40;90.80
4695;DHT22;2361;49.540;8.390;2023-04-25T13:16:34;14.20;91.40
4695;DHT22;2361;49.540;8.390;2023-04-25T13:19:01;14.20;91.30
4695;DHT22;2361;49.540;8.390;2023-04-25T13:21:30;14.30;90.30
4695;DHT22;2361;49.540;8.390;2023-04-25T13:23:59;14.30;90.30
4695;DHT22;2361;49.540;8.390;2023-04-25T13:26:26;14.30;90.50
4695;DHT22;2361;49.540;8.390;2023-04-25T13:28:53;14.30;90.40
4695;DHT22;2361;49.540;8.390;2023-04-25T13:31:20;14.40;90.70
4695;DHT22;2361;49.540;8.390;2023-04-25T13:33:47;14.30;90.40
4695;DHT22;2361;49.540;8.390;2023-04-25T13:36:14;14.20;90.80
4695;DHT22;2361;49.540;8.390;2023-04-25T13:38:41;14.20;91.20
4695;DHT22;2361;49.540;8.390;2023-04-25T13:41:10;14.30;91.60
4695;DHT22;2361;49.540;8.390;2023-04-25T13:43:40;14.30;91.70
4695;DHT22;2361;49.540;8.390;2023-04-25T13:46:07;14.30;91.60
4695;DHT22;2361;49.540;8.390;2023-04-25T13:48:36;14.30;91.50
4695;DHT22;2361;49.540;8.390;2023-04-25T13:51:03;14.30;91.30
4695;DHT22;2361;49.540;8.390;2023-04-25T13:53:30;14.20;91.90
4695;DHT22;2361;49.540;8.390;2023-04-25T13:55:57;14.20;92.20
4695;DHT22;2361;49.540;8.390;2023-04-25T13:58:24;14.20;92.00
4695;DHT22;2361;49.540;8.390;2023-04-25T14:00:51;14.20;91.80
4695;DHT22;2361;49.540;8.390;2023-04-25T14:03:18;14.20;92.00
4695;DHT22;2361;49.540;8.390;2023-04-25T14:05:45;14.30;91.60
4695;DHT22;2361;49.540;8.390;2023-04-25T14:08:12;14.30;91.50
4695;DHT22;2361;49.540;8.390;2023-04-25T14:10:39;14.30;91.30
4695;DHT22;2361;49.540;8.390;2023-04-25T14:13:06;14.30;91.60
4695;DHT22;2361;49.540;8.390;2023-04-25T14:15:36;14.40;91.50
4695;DHT22;2361;49.540;8.390;2023-04-25T14:18:03;14.30;91.50
4695;DHT22;2361;49.540;8.390;2023-04-25T14:20:30;14.20;90.60
4695;DHT22;2361;49.540;8.390;2023-04-25T14:22:57;14.00;90.90
4695;DHT22;2361;49.540;8.390;2023-04-25T14:25:25;13.90;91.10
4695;DHT22;2361;49.540;8.390;2023-04-25T14:27:52;13.90;91.50
4695;DHT22;2361;49.540;8.390;2023-04-25T14:30:20;13.90;91.70
4695;DHT22;2361;49.540;8.390;2023-04-25T14:32:49;13.80;91.80
4695;DHT22;2361;49.540;8.390;2023-04-25T14:35:16;13.80;91.50
4695;DHT22;2361;49.540;8.390;2023-04-25T14:37:43;13.70;91.50
4695;DHT22;2361;49.540;8.390;2023-04-25T14:40:11;13.80;92.20
4695;DHT22;2361;49.540;8.390;2023-04-25T14:42:40;13.80;91.90
4695;DHT22;2361;49.540;8.390;2023-04-25T14:45:08;13.90;91.90
4695;DHT22;2361;49.540;8.390;2023-04-25T14:47:39;13.90;91.30
4695;DHT22;2361;49.540;8.390;2023-04-25T14:50:07;13.80;90.90
4695;DHT22;2361;49.540;8.390;2023-04-25T14:52:35;13.70;91.00
4695;DHT22;2361;49.540;8.390;2023-04-25T14:55:02;13.60;91.50
4695;DHT22;2361;49.540;8.390;2023-04-25T14:57:34;13.60;91.00
4695;DHT22;2361;49.540;8.390;2023-04-25T15:00:03;13.70;91.60
4695;DHT22;2361;49.540;8.390;2023-04-25T15:02:33;13.70;91.50
4695;DHT22;2361;49.540;8.390;2023-04-25T15:05:01;13.70;91.60
4695;DHT22;2361;49.540;8.390;2023-04-25T15:07:28;13.70;91.60
4695;DHT22;2361;49.540;8.390;2023-04-25T15:09:55;13.90;90.40
4695;DHT22;2361;49.540;8.390;2023-04-25T15:12:23;13.90;90.10
4695;DHT22;2361;49.540;8.390;2023-04-25T15:14:52;13.90;89.80
4695;DHT22;2361;49.540;8.390;2023-04-25T15:17:19;13.90;89.40
4695;DHT22;2361;49.540;8.390;2023-04-25T15:19:46;13.90;88.60
4695;DHT22;2361;49.540;8.390;2023-04-25T15:22:13;13.90;86.10
4695;DHT22;2361;49.540;8.390;2023-04-25T15:24:40;14.00;86.00
4695;DHT22;2361;49.540;8.390;2023-04-25T15:27:07;14.00;85.40
4695;DHT22;2361;49.540;8.390;2023-04-25T15:29:34;14.00;85.40
4695;DHT22;2361;49.540;8.390;2023-04-25T15:32:02;14.00;86.20
4695;DHT22;2361;49.540;8.390;2023-04-25T15:34:29;14.00;86.50
4695;DHT22;2361;49.540;8.390;2023-04-25T15:36:56;14.00;87.50
4695;DHT22;2361;49.540;8.390;2023-04-25T15:39:24;14.00;88.30
4695;DHT22;2361;49.540;8.390;2023-04-25T15:41:51;13.90;88.40
4695;DHT22;2361;49.540;8.390;2023-04-25T15:44:17;13.70;88.00
4695;DHT22;2361;49.540;8.390;2023-04-25T15:46:44;13.70;88.40
4695;DHT22;2361;49.540;8.390;2023-04-25T15:49:12;13.70;88.00
4695;DHT22;2361;49.540;8.390;2023-04-25T15:51:39;13.70;89.30
4695;DHT22;2361;49.540;8.390;2023-04-25T15:54:06;13.70;89.20
4695;DHT22;2361;49.540;8.390;2023-04-25T15:56:33;13.70;88.70
4695;DHT22;2361;49.540;8.390;2023-04-25T15:58:59;13.70;90.30
4695;DHT22;2361;49.540;8.390;2023-04-25T16:01:27;13.70;90.00
4695;DHT22;2361;49.540;8.390;2023-04-25T16:03:57;13.60;87.30
4695;DHT22;2361;49.540;8.390;2023-04-25T16:06:25;13.60;86.80
4695;DHT22;2361;49.540;8.390;2023-04-25T16:08:52;13.50;85.60
4695;DHT22;2361;49.540;8.390;2023-04-25T16:11:20;13.50;86.20
4695;DHT22;2361;49.540;8.390;2023-04-25T16:13:48;13.40;86.50
4695;DHT22;2361;49.540;8.390;2023-04-25T16:16:16;13.40;86.30
4695;DHT22;2361;49.540;8.390;2023-04-25T16:18:43;13.30;86.10
4695;DHT22;2361;49.540;8.390;2023-04-25T16:21:10;13.10;85.70
4695;DHT22;2361;49.540;8.390;2023-04-25T16:23:42;13.00;84.80
4695;DHT22;2361;49.540;8.390;2023-04-25T16:26:09;12.90;85.20
4695;DHT22;2361;49.540;8.390;2023-04-25T16:28:36;12.90;85.50